CYNL

METAR CYNL 240900Z AUTO 27003KT 9SM SCT140 04/00 A2970 RMK AO1 SLP069
METAR
LOCATION
CYNL
DATE - TIME
240900Z
WIND
270 TRUE @ 3 KNOTS
VISIBILITY
9SM
RUNWAY VISUAL RANGE
NOT REPORTED
WEATHER
CLOUDINESS
SCT140
TEMP / DEWPOINT
4 ºC / 0 ºC
ALTIMETER
29.70 in. Hg
RECENT WEATHER
NOT REPORTED
WIND SHEAR
NOT REPORTED
REMARKS
RMK AO1 SLP069
SEA LEVEL PRESSURE: hPa

CYNL

METAR CYNL 240800Z AUTO 29004KT 9SM BKN054 BKN150 03/M00 A2970 RMK AO1 SLP069
METAR
LOCATION
CYNL
DATE - TIME
240800Z
WIND
290 TRUE @ 4 KNOTS
VISIBILITY
9SM
RUNWAY VISUAL RANGE
NOT REPORTED
WEATHER
CLOUDINESS
BKN054 BKN150
TEMP / DEWPOINT
3 ºC / -0 ºC
ALTIMETER
29.70 in. Hg
RECENT WEATHER
NOT REPORTED
WIND SHEAR
NOT REPORTED
REMARKS
RMK AO1 SLP069
SEA LEVEL PRESSURE: hPa

CYNL

METAR CYNL 240700Z AUTO 27003KT 9SM FEW210 04/M00 A2970 RMK AO1 SLP066
METAR
LOCATION
CYNL
DATE - TIME
240700Z
WIND
270 TRUE @ 3 KNOTS
VISIBILITY
9SM
RUNWAY VISUAL RANGE
NOT REPORTED
WEATHER
CLOUDINESS
FEW210
TEMP / DEWPOINT
4 ºC / -0 ºC
ALTIMETER
29.70 in. Hg
RECENT WEATHER
NOT REPORTED
WIND SHEAR
NOT REPORTED
REMARKS
RMK AO1 SLP066
SEA LEVEL PRESSURE: hPa

Your time UTC time
 
 
Weather data provided by AXYS Technologies Inc., www.axystechnologies.com
 
Station History